createdAt,value
2018-08-17T00:00:39.649Z,1006.1
2018-08-17T00:01:41.936Z,1006.2
2018-08-17T00:02:44.233Z,1006.2
2018-08-17T00:03:46.525Z,1006.2
2018-08-17T00:04:48.530Z,1006.2
2018-08-17T00:05:50.542Z,1006.2
2018-08-17T00:06:52.827Z,1006.2
2018-08-17T00:07:54.837Z,1006.2
2018-08-17T00:08:57.129Z,1006.2
2018-08-17T00:09:59.419Z,1006.2
2018-08-17T00:11:01.992Z,1006.2
2018-08-17T00:12:04.000Z,1006.2
2018-08-17T00:13:06.008Z,1006.1
2018-08-17T00:14:08.018Z,1006.2
2018-08-17T00:15:10.029Z,1006.1
2018-08-17T00:16:12.037Z,1006.2
2018-08-17T00:17:14.044Z,1006.2
2018-08-17T00:18:16.052Z,1006.2
2018-08-17T00:19:18.347Z,1006.2
2018-08-17T00:20:20.354Z,1006.2
2018-08-17T00:21:22.364Z,1006.2
2018-08-17T00:22:24.372Z,1006.3
2018-08-17T00:23:26.383Z,1006.3
2018-08-17T00:24:28.688Z,1006.3
2018-08-17T00:25:30.699Z,1006.3
2018-08-17T00:26:32.712Z,1006.2
2018-08-17T00:27:34.721Z,1006.2
2018-08-17T00:28:37.014Z,1006.2
2018-08-17T00:29:39.023Z,1006.2
2018-08-17T00:30:41.032Z,1006.2
2018-08-17T00:31:43.318Z,1006.2
2018-08-17T00:32:45.714Z,1006.2
2018-08-17T00:33:47.723Z,1006.2
2018-08-17T00:34:49.735Z,1006.2
2018-08-17T00:35:52.044Z,1006.1
2018-08-17T00:36:54.356Z,1006.2
2018-08-17T00:37:56.394Z,1006.2
2018-08-17T00:38:58.419Z,1006.2
2018-08-17T00:40:00.461Z,1006.2
2018-08-17T00:41:02.492Z,1006.2
2018-08-17T00:42:04.526Z,1006.2
2018-08-17T00:43:06.556Z,1006.2
2018-08-17T00:44:08.601Z,1006.2
2018-08-17T00:45:10.907Z,1006.2
2018-08-17T00:46:12.946Z,1006.2
2018-08-17T00:47:15.289Z,1006.2
2018-08-17T00:48:17.311Z,1006.2
2018-08-17T00:49:19.356Z,1006.2
2018-08-17T00:50:21.391Z,1006.2
2018-08-17T00:51:23.429Z,1006.2
2018-08-17T00:52:25.457Z,1006.2
2018-08-17T00:53:27.798Z,1006.2
2018-08-17T00:54:29.824Z,1006.3
2018-08-17T00:55:32.152Z,1006.3
2018-08-17T00:56:34.185Z,1006.3
2018-08-17T00:57:36.208Z,1006.3
2018-08-17T00:58:38.241Z,1006.3
2018-08-17T00:59:40.588Z,1006.3
2018-08-17T01:00:43.255Z,1006.4
2018-08-17T01:01:45.241Z,1006.3
2018-08-17T01:02:47.279Z,1006.3
2018-08-17T01:03:49.309Z,1006.3
2018-08-17T01:04:51.345Z,1006.4
2018-08-17T01:05:53.390Z,1006.3
2018-08-17T01:06:55.424Z,1006.4
2018-08-17T01:07:57.452Z,1006.4
2018-08-17T01:08:59.497Z,1006.5
2018-08-17T01:10:01.527Z,1006.4
2018-08-17T01:11:03.562Z,1006.5
2018-08-17T01:12:05.982Z,1006.5
2018-08-17T01:13:08.006Z,1006.5
2018-08-17T01:14:10.048Z,1006.5
2018-08-17T01:15:12.660Z,1006.6
2018-08-17T01:16:15.089Z,1006.5
2018-08-17T01:17:17.113Z,1006.6
2018-08-17T01:18:19.151Z,1006.5
2018-08-17T01:19:21.189Z,1006.5
2018-08-17T01:20:23.217Z,1006.6
2018-08-17T01:21:25.268Z,1006.6
2018-08-17T01:22:27.300Z,1006.5
2018-08-17T01:23:29.723Z,1006.6
2018-08-17T01:24:31.752Z,1006.6
2018-08-17T01:25:33.792Z,1006.5
2018-08-17T01:26:35.820Z,1006.6
2018-08-17T01:27:37.876Z,1006.5
2018-08-17T01:28:39.900Z,1006.5
2018-08-17T01:29:42.209Z,1006.5
2018-08-17T01:30:44.248Z,1006.5
2018-08-17T01:31:46.569Z,1006.5
2018-08-17T01:32:48.609Z,1006.5
2018-08-17T01:33:51.030Z,1006.5
2018-08-17T01:34:53.063Z,1006.4
2018-08-17T01:35:55.110Z,1006.5
2018-08-17T01:36:57.131Z,1006.5
2018-08-17T01:37:59.163Z,1006.5
2018-08-17T01:39:01.207Z,1006.5
2018-08-17T01:40:03.243Z,1006.5
2018-08-17T01:41:05.274Z,1006.5
2018-08-17T01:42:07.312Z,1006.5
2018-08-17T01:43:09.624Z,1006.5
2018-08-17T01:44:11.649Z,1006.5
2018-08-17T01:45:13.977Z,1006.5
2018-08-17T01:46:16.002Z,1006.5
2018-08-17T01:47:18.043Z,1006.5
2018-08-17T01:48:20.076Z,1006.5
2018-08-17T01:49:22.116Z,1006.5
2018-08-17T01:50:24.148Z,1006.5
2018-08-17T01:51:26.188Z,1006.6
2018-08-17T01:52:28.220Z,1006.5
2018-08-17T01:53:30.250Z,1006.5
2018-08-17T01:54:32.604Z,1006.5
2018-08-17T01:55:34.629Z,1006.6
2018-08-17T01:56:36.661Z,1006.5
2018-08-17T01:57:38.689Z,1006.6
2018-08-17T01:58:40.730Z,1006.6
2018-08-17T01:59:42.759Z,1006.6
2018-08-17T02:00:44.798Z,1006.6
2018-08-17T02:01:46.836Z,1006.6
2018-08-17T02:02:48.860Z,1006.6
2018-08-17T02:03:50.910Z,1006.6
2018-08-17T02:04:52.948Z,1006.6
2018-08-17T02:05:54.976Z,1006.6
2018-08-17T02:06:57.011Z,1006.7
2018-08-17T02:07:59.048Z,1006.6
2018-08-17T02:09:01.080Z,1006.6
2018-08-17T02:10:03.404Z,1006.6
2018-08-17T02:11:05.441Z,1006.6
2018-08-17T02:12:07.470Z,1006.6
2018-08-17T02:13:09.504Z,1006.6
2018-08-17T02:14:11.822Z,1006.6
2018-08-17T02:15:13.853Z,1006.6
2018-08-17T02:16:15.894Z,1006.6
2018-08-17T02:17:17.935Z,1006.6
2018-08-17T02:18:19.964Z,1006.5
2018-08-17T02:19:22.009Z,1006.5
2018-08-17T02:20:24.039Z,1006.5
2018-08-17T02:21:26.070Z,1006.5
2018-08-17T02:22:28.106Z,1006.6
2018-08-17T02:23:30.732Z,1006.6
2018-08-17T02:24:32.795Z,1006.6
2018-08-17T02:25:34.794Z,1006.6
2018-08-17T02:26:36.829Z,1006.6
2018-08-17T02:27:39.238Z,1006.6
2018-08-17T02:28:41.281Z,1006.6
2018-08-17T02:29:43.315Z,1006.6
2018-08-17T02:30:45.357Z,1006.6
2018-08-17T02:31:47.679Z,1006.7
2018-08-17T02:32:49.720Z,1006.6
2018-08-17T02:33:51.745Z,1006.6
2018-08-17T02:34:53.772Z,1006.6
2018-08-17T02:35:55.817Z,1006.6
2018-08-17T02:36:57.839Z,1006.6
2018-08-17T02:37:59.885Z,1006.6
2018-08-17T02:39:01.913Z,1006.6
2018-08-17T02:40:03.946Z,1006.6
2018-08-17T02:41:06.260Z,1006.7
2018-08-17T02:42:08.300Z,1006.6
2018-08-17T02:43:10.898Z,1006.6
2018-08-17T02:44:12.929Z,1006.6
2018-08-17T02:45:14.979Z,1006.6
2018-08-17T02:46:17.018Z,1006.6
2018-08-17T02:47:19.343Z,1006.6
2018-08-17T02:48:21.374Z,1006.6
2018-08-17T02:49:23.413Z,1006.6
2018-08-17T02:50:25.744Z,1006.5
2018-08-17T02:51:28.061Z,1006.6
2018-08-17T02:52:30.104Z,1006.6
2018-08-17T02:53:32.137Z,1006.6
2018-08-17T02:54:34.174Z,1006.6
2018-08-17T02:55:36.492Z,1006.6
2018-08-17T02:56:38.534Z,1006.6
2018-08-17T02:57:40.852Z,1006.6
2018-08-17T02:58:43.490Z,1006.5
2018-08-17T02:59:45.528Z,1006.5
2018-08-17T03:00:47.842Z,1006.5
2018-08-17T03:01:50.276Z,1006.5
2018-08-17T03:02:52.639Z,1006.5
2018-08-17T03:03:55.343Z,1006.6
2018-08-17T03:04:57.378Z,1006.6
2018-08-17T03:05:59.416Z,1006.6
2018-08-17T03:07:01.833Z,1006.6
2018-08-17T03:08:03.860Z,1006.6
2018-08-17T03:09:05.907Z,1006.6
2018-08-17T03:10:07.932Z,1006.7
2018-08-17T03:11:09.969Z,1006.7
2018-08-17T03:12:12.009Z,1006.7
2018-08-17T03:13:14.049Z,1006.7
2018-08-17T03:14:17.414Z,1006.7
2018-08-17T03:15:19.451Z,1006.6
2018-08-17T03:16:21.481Z,1006.7
2018-08-17T03:17:23.516Z,1006.7
2018-08-17T03:18:25.947Z,1006.6
2018-08-17T03:19:27.978Z,1006.6
2018-08-17T03:20:30.010Z,1006.6
2018-08-17T03:21:32.056Z,1006.6
2018-08-17T03:22:34.375Z,1006.6
2018-08-17T03:23:36.789Z,1006.6
2018-08-17T03:24:39.135Z,1006.6
2018-08-17T03:25:41.157Z,1006.6
2018-08-17T03:26:43.202Z,1006.6
2018-08-17T03:27:45.515Z,1006.6
2018-08-17T03:28:47.553Z,1006.6
2018-08-17T03:29:50.561Z,1006.6
2018-08-17T03:30:52.608Z,1006.6
2018-08-17T03:31:55.243Z,1006.6
2018-08-17T03:32:57.279Z,1006.6
2018-08-17T03:33:59.627Z,1006.6
2018-08-17T03:35:01.647Z,1006.6
2018-08-17T03:36:04.068Z,1006.6
2018-08-17T03:37:06.510Z,1006.6
2018-08-17T03:38:09.414Z,1006.6
2018-08-17T03:39:11.344Z,1006.6
2018-08-17T03:40:13.385Z,1006.6
2018-08-17T03:41:15.710Z,1006.6
2018-08-17T03:42:17.764Z,1006.6
2018-08-17T03:43:19.783Z,1006.6
2018-08-17T03:44:21.822Z,1006.6
2018-08-17T03:45:24.149Z,1006.6
2018-08-17T03:46:26.468Z,1006.6
2018-08-17T03:47:28.505Z,1006.6
2018-08-17T03:48:30.538Z,1006.6
2018-08-17T03:49:32.575Z,1006.6
2018-08-17T03:50:34.610Z,1006.6
2018-08-17T03:51:36.631Z,1006.6
2018-08-17T03:52:38.954Z,1006.6
2018-08-17T03:53:41.275Z,1006.7
2018-08-17T03:54:43.303Z,1006.7
2018-08-17T03:55:45.341Z,1006.7
2018-08-17T03:56:47.380Z,1006.7
2018-08-17T03:57:49.413Z,1006.7
2018-08-17T03:58:51.462Z,1006.7
2018-08-17T03:59:53.491Z,1006.7
2018-08-17T04:00:55.525Z,1006.7
2018-08-17T04:01:57.550Z,1006.7
2018-08-17T04:02:59.582Z,1006.8
2018-08-17T04:04:01.620Z,1006.8
2018-08-17T04:05:03.653Z,1006.8
2018-08-17T04:06:05.682Z,1006.8
2018-08-17T04:07:07.725Z,1006.8
2018-08-17T04:08:09.752Z,1006.8
2018-08-17T04:09:11.787Z,1006.9
2018-08-17T04:10:13.819Z,1006.8
2018-08-17T04:11:15.859Z,1006.8
2018-08-17T04:12:17.889Z,1006.8
2018-08-17T04:13:20.222Z,1006.9
2018-08-17T04:14:22.262Z,1006.9
2018-08-17T04:15:24.714Z,1006.9
2018-08-17T04:16:27.081Z,1006.9
2018-08-17T04:17:29.113Z,1006.9
2018-08-17T04:18:31.145Z,1007
2018-08-17T04:19:33.456Z,1007
2018-08-17T04:20:35.785Z,1007
2018-08-17T04:21:37.812Z,1007
2018-08-17T04:22:40.236Z,1007
2018-08-17T04:23:42.283Z,1007
2018-08-17T04:24:44.297Z,1007
2018-08-17T04:25:46.331Z,1007.1
2018-08-17T04:26:48.372Z,1007
2018-08-17T04:27:50.402Z,1007
2018-08-17T04:28:52.442Z,1007
2018-08-17T04:29:54.770Z,1007.1
2018-08-17T04:30:56.800Z,1007.1
2018-08-17T04:31:58.844Z,1007.2
2018-08-17T04:33:00.873Z,1007.2
2018-08-17T04:34:02.908Z,1007.2
2018-08-17T04:35:04.935Z,1007.2
2018-08-17T04:36:06.983Z,1007.2
2018-08-17T04:37:09.008Z,1007.2
2018-08-17T04:38:11.335Z,1007.2
2018-08-17T04:39:13.954Z,1007.2
2018-08-17T04:40:15.994Z,1007.2
2018-08-17T04:41:18.306Z,1007.2
2018-08-17T04:42:20.342Z,1007.2
2018-08-17T04:43:22.371Z,1007.2
2018-08-17T04:44:24.418Z,1007.3
2018-08-17T04:45:26.838Z,1007.2
2018-08-17T04:46:29.158Z,1007.2
2018-08-17T04:47:31.199Z,1007.3
2018-08-17T04:48:33.226Z,1007.3
2018-08-17T04:49:35.265Z,1007.3
2018-08-17T04:50:37.299Z,1007.3
2018-08-17T04:51:39.327Z,1007.3
2018-08-17T04:52:41.359Z,1007.3
2018-08-17T04:53:43.401Z,1007.3
2018-08-17T04:54:45.431Z,1007.3
2018-08-17T04:55:48.141Z,1007.3
2018-08-17T04:56:50.178Z,1007.3
2018-08-17T04:57:52.208Z,1007.3
2018-08-17T04:58:54.244Z,1007.3
2018-08-17T04:59:56.281Z,1007.3
2018-08-17T05:00:58.315Z,1007.3
2018-08-17T05:02:00.357Z,1007.3
2018-08-17T05:03:02.398Z,1007.3
2018-08-17T05:04:04.728Z,1007.3
2018-08-17T05:05:07.059Z,1007.3
2018-08-17T05:06:09.090Z,1007.3
2018-08-17T05:07:11.412Z,1007.3
2018-08-17T05:08:13.477Z,1007.3
2018-08-17T05:09:15.532Z,1007.3
2018-08-17T05:10:17.563Z,1007.3
2018-08-17T05:11:19.599Z,1007.4
2018-08-17T05:12:21.639Z,1007.4
2018-08-17T05:13:23.949Z,1007.3
2018-08-17T05:14:25.993Z,1007.4
2018-08-17T05:15:28.316Z,1007.4
2018-08-17T05:16:30.648Z,1007.3
2018-08-17T05:17:32.681Z,1007.3
2018-08-17T05:18:34.996Z,1007.3
2018-08-17T05:19:37.037Z,1007.3
2018-08-17T05:20:39.396Z,1007.3
2018-08-17T05:21:41.984Z,1007.3
2018-08-17T05:22:44.318Z,1007.2
2018-08-17T05:23:46.357Z,1007.3
2018-08-17T05:24:48.379Z,1007.3
2018-08-17T05:25:50.416Z,1007.3
2018-08-17T05:26:52.457Z,1007.3
2018-08-17T05:27:54.486Z,1007.3
2018-08-17T05:28:56.529Z,1007.3
2018-08-17T05:29:58.862Z,1007.3
2018-08-17T05:31:01.175Z,1007.3
2018-08-17T05:32:03.601Z,1007.3
2018-08-17T05:33:05.639Z,1007.3
2018-08-17T05:34:07.675Z,1007.3
2018-08-17T05:35:09.713Z,1007.3
2018-08-17T05:36:11.755Z,1007.3
2018-08-17T05:37:13.786Z,1007.3
2018-08-17T05:38:15.830Z,1007.3
2018-08-17T05:39:17.863Z,1007.3
2018-08-17T05:40:20.209Z,1007.2
2018-08-17T05:41:22.623Z,1007.2
2018-08-17T05:42:24.667Z,1007.3
2018-08-17T05:43:26.701Z,1007.2
2018-08-17T05:44:28.738Z,1007.2
2018-08-17T05:45:31.171Z,1007.2
2018-08-17T05:46:33.195Z,1007.2
2018-08-17T05:47:35.245Z,1007.2
2018-08-17T05:48:37.286Z,1007.2
2018-08-17T05:49:39.329Z,1007.2
2018-08-17T05:50:41.364Z,1007.2
2018-08-17T05:51:43.403Z,1007.2
2018-08-17T05:52:45.433Z,1007.2
2018-08-17T05:53:47.464Z,1007.2
2018-08-17T05:54:49.823Z,1007.2
2018-08-17T05:55:52.235Z,1007.2
2018-08-17T05:56:54.669Z,1007.2
2018-08-17T05:57:56.708Z,1007.2
2018-08-17T05:58:58.750Z,1007.2
2018-08-17T06:00:00.778Z,1007.2
2018-08-17T06:01:03.125Z,1007.2
2018-08-17T06:02:05.156Z,1007.2
2018-08-17T06:03:07.492Z,1007.2
2018-08-17T06:04:09.542Z,1007.2
2018-08-17T06:05:11.577Z,1007.2
2018-08-17T06:06:13.995Z,1007.3
2018-08-17T06:07:16.321Z,1007.2
2018-08-17T06:08:18.354Z,1007.3
2018-08-17T06:09:20.385Z,1007.3
2018-08-17T06:10:22.433Z,1007.3
2018-08-17T06:11:24.571Z,1007.3
2018-08-17T06:12:27.595Z,1007.3
2018-08-17T06:13:29.633Z,1007.3
2018-08-17T06:14:31.678Z,1007.4
2018-08-17T06:15:33.710Z,1007.3
2018-08-17T06:16:35.759Z,1007.3
2018-08-17T06:17:38.086Z,1007.4
2018-08-17T06:18:40.114Z,1007.4
2018-08-17T06:19:42.450Z,1007.4
2018-08-17T06:20:44.475Z,1007.4
2018-08-17T06:21:46.514Z,1007.4
2018-08-17T06:22:48.546Z,1007.4
2018-08-17T06:23:50.588Z,1007.4
2018-08-17T06:24:52.623Z,1007.4
2018-08-17T06:25:54.666Z,1007.4
2018-08-17T06:26:57.029Z,1007.3
2018-08-17T06:27:59.060Z,1007.4
2018-08-17T06:29:01.107Z,1007.4
2018-08-17T06:30:03.143Z,1007.4
2018-08-17T06:31:05.173Z,1007.3
2018-08-17T06:32:08.058Z,1007.4
2018-08-17T06:33:10.101Z,1007.4
2018-08-17T06:34:12.523Z,1007.4
2018-08-17T06:35:14.608Z,1007.4
2018-08-17T06:36:16.603Z,1007.4
2018-08-17T06:37:18.673Z,1007.4
2018-08-17T06:38:21.448Z,1007.5
2018-08-17T06:39:23.784Z,1007.5
2018-08-17T06:40:26.145Z,1007.5
2018-08-17T06:41:28.179Z,1007.5
2018-08-17T06:42:30.497Z,1007.5
2018-08-17T06:43:32.540Z,1007.5
2018-08-17T06:44:34.569Z,1007.5
2018-08-17T06:45:36.610Z,1007.6
2018-08-17T06:46:38.934Z,1007.6
2018-08-17T06:47:40.981Z,1007.6
2018-08-17T06:48:43.292Z,1007.7
2018-08-17T06:49:45.334Z,1007.6
2018-08-17T06:50:47.449Z,1007.6
2018-08-17T06:51:49.883Z,1007.6
2018-08-17T06:52:51.930Z,1007.6
2018-08-17T06:53:53.959Z,1007.5
2018-08-17T06:54:55.999Z,1007.5
2018-08-17T06:55:58.032Z,1007.6
2018-08-17T06:57:00.145Z,1007.5
2018-08-17T06:58:02.405Z,1007.5
2018-08-17T06:59:04.447Z,1007.5
2018-08-17T07:00:06.495Z,1007.6
2018-08-17T07:01:08.524Z,1007.5
2018-08-17T07:02:10.573Z,1007.5
2018-08-17T07:03:12.617Z,1007.6
2018-08-17T07:04:14.650Z,1007.6
2018-08-17T07:05:16.694Z,1007.6
2018-08-17T07:06:18.737Z,1007.6
2018-08-17T07:07:20.773Z,1007.6
2018-08-17T07:08:22.822Z,1007.6
2018-08-17T07:09:25.516Z,1007.6
2018-08-17T07:10:27.451Z,1007.6
2018-08-17T07:11:29.779Z,1007.6
2018-08-17T07:12:31.809Z,1007.7
2018-08-17T07:13:33.853Z,1007.7
2018-08-17T07:14:35.891Z,1007.7
2018-08-17T07:15:38.217Z,1007.7
2018-08-17T07:16:40.320Z,1007.7
2018-08-17T07:17:42.289Z,1007.7
2018-08-17T07:18:44.615Z,1007.6
2018-08-17T07:19:46.659Z,1007.7
2018-08-17T07:20:48.701Z,1007.7
2018-08-17T07:21:51.042Z,1007.7
2018-08-17T07:22:53.088Z,1007.7
2018-08-17T07:23:55.129Z,1007.7
2018-08-17T07:24:57.163Z,1007.7
2018-08-17T07:25:59.503Z,1007.8
2018-08-17T07:27:01.540Z,1007.8
2018-08-17T07:28:03.915Z,1007.8
2018-08-17T07:29:06.246Z,1007.8
2018-08-17T07:30:08.681Z,1007.8
2018-08-17T07:31:11.386Z,1007.8
2018-08-17T07:32:13.435Z,1007.8
2018-08-17T07:33:16.179Z,1007.8
2018-08-17T07:34:18.211Z,1007.8
2018-08-17T07:35:20.264Z,1007.8
2018-08-17T07:36:22.595Z,1007.9
2018-08-17T07:37:24.625Z,1007.9
2018-08-17T07:38:26.677Z,1007.9
2018-08-17T07:39:29.010Z,1008
2018-08-17T07:40:31.047Z,1008
2018-08-17T07:41:33.115Z,1008
2018-08-17T07:42:35.130Z,1008
2018-08-17T07:43:37.164Z,1008
2018-08-17T07:44:39.204Z,1008
2018-08-17T07:45:41.656Z,1008
2018-08-17T07:46:43.689Z,1008
2018-08-17T07:47:45.816Z,1007.9
2018-08-17T07:48:47.785Z,1007.9
2018-08-17T07:49:49.826Z,1007.9
2018-08-17T07:50:51.854Z,1007.9
2018-08-17T07:51:53.901Z,1007.9
2018-08-17T07:52:55.943Z,1007.9
2018-08-17T07:53:57.991Z,1008
2018-08-17T07:55:00.317Z,1007.9
2018-08-17T07:56:02.355Z,1008
2018-08-17T07:57:04.392Z,1008
2018-08-17T07:58:06.436Z,1008
2018-08-17T07:59:08.941Z,1008
2018-08-17T08:00:11.309Z,1008
2018-08-17T08:01:13.348Z,1008.1
2018-08-17T08:02:15.775Z,1008.1
2018-08-17T08:03:17.812Z,1008.1
2018-08-17T08:04:19.847Z,1008.1
2018-08-17T08:05:21.896Z,1008
2018-08-17T08:06:23.937Z,1008
2018-08-17T08:07:26.265Z,1008
2018-08-17T08:08:28.315Z,1008
2018-08-17T08:09:30.663Z,1008
2018-08-17T08:10:33.339Z,1008
2018-08-17T08:11:35.380Z,1008
2018-08-17T08:12:37.428Z,1008
2018-08-17T08:13:39.475Z,1008
2018-08-17T08:14:41.583Z,1008
2018-08-17T08:15:43.549Z,1008
2018-08-17T08:16:45.579Z,1008
2018-08-17T08:17:48.011Z,1008
2018-08-17T08:18:50.065Z,1008
2018-08-17T08:19:52.102Z,1008
2018-08-17T08:20:54.147Z,1008
2018-08-17T08:21:56.196Z,1008
2018-08-17T08:22:58.235Z,1008.1
2018-08-17T08:24:00.289Z,1008.1
2018-08-17T08:25:02.321Z,1008.1
2018-08-17T08:26:04.381Z,1008.1
2018-08-17T08:27:06.405Z,1008.1
2018-08-17T08:28:08.447Z,1008.1
2018-08-17T08:29:10.481Z,1008.2
2018-08-17T08:30:12.909Z,1008.2
2018-08-17T08:31:14.957Z,1008.2
2018-08-17T08:32:17.042Z,1008.2
2018-08-17T08:33:19.041Z,1008.2
2018-08-17T08:34:21.468Z,1008.3
2018-08-17T08:35:23.518Z,1008.3
2018-08-17T08:36:25.841Z,1008.2
2018-08-17T08:37:27.902Z,1008.2
2018-08-17T08:38:30.221Z,1008.3
2018-08-17T08:39:32.260Z,1008.3
2018-08-17T08:40:34.314Z,1008.3
2018-08-17T08:41:36.347Z,1008.3
2018-08-17T08:42:38.395Z,1008.3
2018-08-17T08:43:40.447Z,1008.3
2018-08-17T08:44:42.877Z,1008.4
2018-08-17T08:45:45.211Z,1008.3
2018-08-17T08:46:47.255Z,1008.3
2018-08-17T08:47:49.855Z,1008.3
2018-08-17T08:48:51.901Z,1008.4
2018-08-17T08:49:53.956Z,1008.3
2018-08-17T08:50:56.000Z,1008.4
2018-08-17T08:51:58.423Z,1008.4
2018-08-17T08:53:00.475Z,1008.4
2018-08-17T08:54:03.090Z,1008.4
2018-08-17T08:55:05.409Z,1008.4
2018-08-17T08:56:07.548Z,1008.4
2018-08-17T08:57:09.775Z,1008.4
2018-08-17T08:58:12.214Z,1008.4
2018-08-17T08:59:14.261Z,1008.5
2018-08-17T09:00:16.315Z,1008.5
2018-08-17T09:01:18.737Z,1008.5
2018-08-17T09:02:21.182Z,1008.5
2018-08-17T09:03:23.227Z,1008.5
2018-08-17T09:04:25.265Z,1008.5
2018-08-17T09:05:27.311Z,1008.5
2018-08-17T09:06:29.371Z,1008.5
2018-08-17T09:07:31.798Z,1008.5
2018-08-17T09:08:33.856Z,1008.5
2018-08-17T09:09:35.890Z,1008.5
2018-08-17T09:10:37.941Z,1008.5
2018-08-17T09:11:39.983Z,1008.5
2018-08-17T09:12:42.024Z,1008.6
2018-08-17T09:13:44.214Z,1008.6
2018-08-17T09:14:46.590Z,1008.6
2018-08-17T09:15:48.636Z,1008.6
2018-08-17T09:16:50.970Z,1008.6
2018-08-17T09:17:53.018Z,1008.6
2018-08-17T09:18:55.053Z,1008.6
2018-08-17T09:19:57.105Z,1008.6
2018-08-17T09:20:59.430Z,1008.5
2018-08-17T09:22:01.480Z,1008.5
2018-08-17T09:23:03.825Z,1008.5
2018-08-17T09:24:06.466Z,1008.6
2018-08-17T09:25:08.901Z,1008.5
2018-08-17T09:26:10.946Z,1008.5
2018-08-17T09:27:12.987Z,1008.4
2018-08-17T09:28:15.600Z,1008.4
2018-08-17T09:29:17.690Z,1008.4
2018-08-17T09:30:19.814Z,1008.5
2018-08-17T09:31:21.739Z,1008.5
2018-08-17T09:32:24.172Z,1008.5
2018-08-17T09:33:26.220Z,1008.5
2018-08-17T09:34:28.259Z,1008.5
2018-08-17T09:35:30.315Z,1008.5
2018-08-17T09:36:33.053Z,1008.5
2018-08-17T09:37:35.094Z,1008.5
2018-08-17T09:38:37.152Z,1008.5
2018-08-17T09:39:39.187Z,1008.5
2018-08-17T09:40:41.232Z,1008.5
2018-08-17T09:41:43.347Z,1008.6
2018-08-17T09:42:45.331Z,1008.6
2018-08-17T09:43:47.369Z,1008.6
2018-08-17T09:44:49.422Z,1008.6
2018-08-17T09:45:51.753Z,1008.6
2018-08-17T09:46:53.812Z,1008.6
2018-08-17T09:47:55.847Z,1008.6
2018-08-17T09:48:57.894Z,1008.6
2018-08-17T09:49:59.944Z,1008.5
2018-08-17T09:51:01.989Z,1008.5
2018-08-17T09:52:04.318Z,1008.5
2018-08-17T09:53:06.369Z,1008.5
2018-08-17T09:54:08.699Z,1008.6
2018-08-17T09:55:10.746Z,1008.5
2018-08-17T09:56:12.802Z,1008.6
2018-08-17T09:57:14.848Z,1008.6
2018-08-17T09:58:16.889Z,1008.6
2018-08-17T09:59:19.621Z,1008.6
2018-08-17T10:00:21.657Z,1008.6
2018-08-17T10:01:23.697Z,1008.5
2018-08-17T10:02:25.751Z,1008.6
2018-08-17T10:03:27.791Z,1008.6
2018-08-17T10:04:30.540Z,1008.6
2018-08-17T10:05:32.866Z,1008.6
2018-08-17T10:06:34.918Z,1008.5
2018-08-17T10:07:37.246Z,1008.5
2018-08-17T10:08:39.295Z,1008.6
2018-08-17T10:09:41.344Z,1008.6
2018-08-17T10:10:43.392Z,1008.6
2018-08-17T10:11:45.448Z,1008.6
2018-08-17T10:12:47.480Z,1008.6
2018-08-17T10:13:49.529Z,1008.6
2018-08-17T10:14:51.573Z,1008.6
2018-08-17T10:15:53.673Z,1008.7
2018-08-17T10:16:55.665Z,1008.6
2018-08-17T10:17:57.717Z,1008.6
2018-08-17T10:19:00.154Z,1008.6
2018-08-17T10:20:02.186Z,1008.6
2018-08-17T10:21:05.070Z,1008.6
2018-08-17T10:22:07.370Z,1008.6
2018-08-17T10:23:10.719Z,1008.6
2018-08-17T10:24:13.150Z,1008.6
2018-08-17T10:25:15.192Z,1008.6
2018-08-17T10:26:17.243Z,1008.6
2018-08-17T10:27:19.285Z,1008.5
2018-08-17T10:28:21.720Z,1008.5
2018-08-17T10:29:23.774Z,1008.5
2018-08-17T10:30:26.206Z,1008.6
2018-08-17T10:31:28.248Z,1008.5
2018-08-17T10:32:30.602Z,1008.6
2018-08-17T10:33:32.644Z,1008.6
2018-08-17T10:34:34.985Z,1008.6
2018-08-17T10:35:37.044Z,1008.5
2018-08-17T10:36:39.084Z,1008.6
2018-08-17T10:37:41.423Z,1008.6
2018-08-17T10:38:43.521Z,1008.7
2018-08-17T10:39:45.531Z,1008.6
2018-08-17T10:40:47.613Z,1008.7
2018-08-17T10:41:50.042Z,1008.6
2018-08-17T10:42:52.771Z,1008.6
2018-08-17T10:43:54.816Z,1008.5
2018-08-17T10:44:56.878Z,1008.5
2018-08-17T10:45:58.920Z,1008.5
2018-08-17T10:47:00.970Z,1008.5
2018-08-17T10:48:03.016Z,1008.5
2018-08-17T10:49:05.116Z,1008.6
2018-08-17T10:50:07.417Z,1008.5
2018-08-17T10:51:09.472Z,1008.5
2018-08-17T10:52:11.533Z,1008.5
2018-08-17T10:53:13.577Z,1008.5
2018-08-17T10:54:15.919Z,1008.5
2018-08-17T10:55:18.259Z,1008.5
2018-08-17T10:56:20.305Z,1008.5
2018-08-17T10:57:22.411Z,1008.5
2018-08-17T10:58:24.408Z,1008.5
2018-08-17T10:59:26.737Z,1008.5
2018-08-17T11:00:28.794Z,1008.5
2018-08-17T11:01:30.848Z,1008.5
2018-08-17T11:02:32.889Z,1008.5
2018-08-17T11:03:34.942Z,1008.6
2018-08-17T11:04:37.001Z,1008.6
2018-08-17T11:05:39.049Z,1008.6
2018-08-17T11:06:41.678Z,1008.5
2018-08-17T11:07:43.738Z,1008.6
2018-08-17T11:08:46.076Z,1008.6
2018-08-17T11:09:48.138Z,1008.6
2018-08-17T11:10:50.485Z,1008.6
2018-08-17T11:11:52.929Z,1008.6
2018-08-17T11:12:55.262Z,1008.6
2018-08-17T11:13:57.607Z,1008.6
2018-08-17T11:14:59.945Z,1008.5
2018-08-17T11:16:01.994Z,1008.5
2018-08-17T11:17:04.142Z,1008.5
2018-08-17T11:18:06.099Z,1008.5
2018-08-17T11:19:08.161Z,1008.5
2018-08-17T11:20:10.521Z,1008.6
2018-08-17T11:21:12.579Z,1008.6
2018-08-17T11:22:14.627Z,1008.6
2018-08-17T11:23:16.689Z,1008.6
2018-08-17T11:24:19.027Z,1008.6
2018-08-17T11:25:21.070Z,1008.6
2018-08-17T11:26:23.429Z,1008.6
2018-08-17T11:27:25.474Z,1008.6
2018-08-17T11:28:27.526Z,1008.6
2018-08-17T11:29:29.583Z,1008.6
2018-08-17T11:30:31.637Z,1008.6
2018-08-17T11:31:33.689Z,1008.6
2018-08-17T11:32:35.741Z,1008.6
2018-08-17T11:33:37.792Z,1008.6
2018-08-17T11:34:39.848Z,1008.6
2018-08-17T11:35:41.920Z,1008.6
2018-08-17T11:36:43.969Z,1008.6
2018-08-17T11:37:46.032Z,1008.7
2018-08-17T11:38:48.077Z,1008.7
2018-08-17T11:39:50.134Z,1008.7
2018-08-17T11:40:52.585Z,1008.7
2018-08-17T11:41:54.630Z,1008.6
2018-08-17T11:42:57.007Z,1008.6
2018-08-17T11:43:59.048Z,1008.6
2018-08-17T11:45:01.388Z,1008.6
2018-08-17T11:46:03.441Z,1008.6
2018-08-17T11:47:05.784Z,1008.6
2018-08-17T11:48:07.832Z,1008.5
2018-08-17T11:49:09.883Z,1008.5
2018-08-17T11:50:12.326Z,1008.5
2018-08-17T11:51:14.370Z,1008.5
2018-08-17T11:52:16.434Z,1008.5
2018-08-17T11:53:18.492Z,1008.5
2018-08-17T11:54:20.551Z,1008.5
2018-08-17T11:55:22.601Z,1008.5
2018-08-17T11:56:25.044Z,1008.5
2018-08-17T11:57:27.092Z,1008.6
2018-08-17T11:58:29.136Z,1008.6
2018-08-17T11:59:31.201Z,1008.6
2018-08-17T12:00:33.267Z,1008.6
2018-08-17T12:01:35.601Z,1008.6
2018-08-17T12:02:37.659Z,1008.6
2018-08-17T12:03:40.003Z,1008.6
2018-08-17T12:04:42.049Z,1008.5
2018-08-17T12:05:44.393Z,1008.6
2018-08-17T12:06:46.489Z,1008.6
2018-08-17T12:07:49.231Z,1008.6
2018-08-17T12:08:51.292Z,1008.6
2018-08-17T12:09:53.341Z,1008.6
2018-08-17T12:10:55.389Z,1008.6
2018-08-17T12:11:57.450Z,1008.6
2018-08-17T12:12:59.496Z,1008.6
2018-08-17T12:14:01.557Z,1008.6
2018-08-17T12:15:03.877Z,1008.6
2018-08-17T12:16:05.940Z,1008.6
2018-08-17T12:17:07.989Z,1008.6
2018-08-17T12:18:10.045Z,1008.6
2018-08-17T12:19:12.375Z,1008.6
2018-08-17T12:20:14.431Z,1008.5
2018-08-17T12:21:16.770Z,1008.6
2018-08-17T12:22:18.821Z,1008.6
2018-08-17T12:23:20.905Z,1008.6
2018-08-17T12:24:23.003Z,1008.5
2018-08-17T12:25:26.403Z,1008.5
2018-08-17T12:26:28.740Z,1008.5
2018-08-17T12:27:30.800Z,1008.5
2018-08-17T12:28:32.848Z,1008.5
2018-08-17T12:29:34.901Z,1008.5
2018-08-17T12:30:37.263Z,1008.5
2018-08-17T12:31:39.627Z,1008.5
2018-08-17T12:32:41.687Z,1008.5
2018-08-17T12:33:44.022Z,1008.5
2018-08-17T12:34:46.077Z,1008.6
2018-08-17T12:35:48.137Z,1008.6
2018-08-17T12:36:50.190Z,1008.6
2018-08-17T12:37:52.237Z,1008.6
2018-08-17T12:38:54.294Z,1008.6
2018-08-17T12:39:56.704Z,1008.6
2018-08-17T12:40:59.293Z,1008.6
2018-08-17T12:42:01.364Z,1008.6
2018-08-17T12:43:03.700Z,1008.5
2018-08-17T12:44:05.746Z,1008.6
2018-08-17T12:45:07.805Z,1008.6
2018-08-17T12:46:09.851Z,1008.6
2018-08-17T12:47:11.898Z,1008.6
2018-08-17T12:48:13.958Z,1008.6
2018-08-17T12:49:16.003Z,1008.7
2018-08-17T12:50:18.057Z,1008.6
2018-08-17T12:51:20.111Z,1008.6
2018-08-17T12:52:22.237Z,1008.6
2018-08-17T12:53:24.220Z,1008.7
2018-08-17T12:54:26.272Z,1008.7
2018-08-17T12:55:28.609Z,1008.7
2018-08-17T12:56:30.666Z,1008.7
2018-08-17T12:57:32.710Z,1008.7
2018-08-17T12:58:34.772Z,1008.7